sensor_id;sensor_type;location;lat;lon;timestamp;temperature;humidity
36690;DHT22;22676;51.120;3.702;2022-12-22T00:00:31;23.50;45.80
36690;DHT22;22676;51.120;3.702;2022-12-22T00:03:16;23.50;45.70
36690;DHT22;22676;51.120;3.702;2022-12-22T00:06:00;23.60;45.70
36690;DHT22;22676;51.120;3.702;2022-12-22T00:08:44;23.50;45.50
36690;DHT22;22676;51.120;3.702;2022-12-22T00:11:29;23.50;45.60
36690;DHT22;22676;51.120;3.702;2022-12-22T00:14:13;23.50;45.70
36690;DHT22;22676;51.120;3.702;2022-12-22T00:16:58;23.50;45.60
36690;DHT22;22676;51.120;3.702;2022-12-22T00:19:42;23.60;45.50
36690;DHT22;22676;51.120;3.702;2022-12-22T00:22:26;23.50;45.60
36690;DHT22;22676;51.120;3.702;2022-12-22T00:25:11;23.60;45.60
36690;DHT22;22676;51.120;3.702;2022-12-22T00:27:55;23.60;45.60
36690;DHT22;22676;51.120;3.702;2022-12-22T00:30:40;23.60;45.50
36690;DHT22;22676;51.120;3.702;2022-12-22T00:33:24;23.60;45.40
36690;DHT22;22676;51.120;3.702;2022-12-22T00:36:09;23.60;45.40
36690;DHT22;22676;51.120;3.702;2022-12-22T00:38:53;23.60;45.40
36690;DHT22;22676;51.120;3.702;2022-12-22T00:41:37;23.60;45.40
36690;DHT22;22676;51.120;3.702;2022-12-22T00:44:22;23.60;45.30
36690;DHT22;22676;51.120;3.702;2022-12-22T00:47:13;23.60;45.40
36690;DHT22;22676;51.120;3.702;2022-12-22T00:50:01;23.60;45.40
36690;DHT22;22676;51.120;3.702;2022-12-22T00:52:45;23.60;45.60
36690;DHT22;22676;51.120;3.702;2022-12-22T00:55:29;23.60;45.50
36690;DHT22;22676;51.120;3.702;2022-12-22T00:58:15;23.60;45.50
36690;DHT22;22676;51.120;3.702;2022-12-22T01:01:00;23.60;45.50
36690;DHT22;22676;51.120;3.702;2022-12-22T01:03:44;23.70;45.50
36690;DHT22;22676;51.120;3.702;2022-12-22T01:06:29;23.60;45.40
36690;DHT22;22676;51.120;3.702;2022-12-22T01:09:14;23.60;45.50
36690;DHT22;22676;51.120;3.702;2022-12-22T01:11:58;23.60;45.50
36690;DHT22;22676;51.120;3.702;2022-12-22T01:14:43;23.60;45.40
36690;DHT22;22676;51.120;3.702;2022-12-22T01:17:27;23.50;45.50
36690;DHT22;22676;51.120;3.702;2022-12-22T01:20:11;23.40;45.60
36690;DHT22;22676;51.120;3.702;2022-12-22T01:22:55;23.40;45.40
36690;DHT22;22676;51.120;3.702;2022-12-22T01:25:40;23.50;45.30
36690;DHT22;22676;51.120;3.702;2022-12-22T01:28:24;23.50;45.40
36690;DHT22;22676;51.120;3.702;2022-12-22T01:31:20;23.50;45.60
36690;DHT22;22676;51.120;3.702;2022-12-22T01:34:08;23.50;45.50
36690;DHT22;22676;51.120;3.702;2022-12-22T01:36:52;23.60;45.40
36690;DHT22;22676;51.120;3.702;2022-12-22T01:39:36;23.60;45.40
36690;DHT22;22676;51.120;3.702;2022-12-22T01:42:21;23.70;45.40
36690;DHT22;22676;51.120;3.702;2022-12-22T01:45:14;23.70;45.40
36690;DHT22;22676;51.120;3.702;2022-12-22T01:48:01;23.60;45.30
36690;DHT22;22676;51.120;3.702;2022-12-22T01:50:45;23.70;45.30
36690;DHT22;22676;51.120;3.702;2022-12-22T01:53:29;23.70;45.30
36690;DHT22;22676;51.120;3.702;2022-12-22T01:56:14;23.70;45.50
36690;DHT22;22676;51.120;3.702;2022-12-22T01:58:59;23.70;46.00
36690;DHT22;22676;51.120;3.702;2022-12-22T02:01:43;23.70;46.00
36690;DHT22;22676;51.120;3.702;2022-12-22T02:04:31;23.60;45.90
36690;DHT22;22676;51.120;3.702;2022-12-22T02:07:42;23.70;45.90
36690;DHT22;22676;51.120;3.702;2022-12-22T02:10:27;23.70;45.80
36690;DHT22;22676;51.120;3.702;2022-12-22T02:13:19;23.70;45.50
36690;DHT22;22676;51.120;3.702;2022-12-22T02:16:13;23.70;45.60
36690;DHT22;22676;51.120;3.702;2022-12-22T02:19:01;23.70;45.60
36690;DHT22;22676;51.120;3.702;2022-12-22T02:24:57;23.70;45.40
36690;DHT22;22676;51.120;3.702;2022-12-22T02:27:43;23.70;45.40
36690;DHT22;22676;51.120;3.702;2022-12-22T02:30:30;23.70;45.40
36690;DHT22;22676;51.120;3.702;2022-12-22T02:33:14;23.70;45.40
36690;DHT22;22676;51.120;3.702;2022-12-22T02:36:04;23.60;45.50
36690;DHT22;22676;51.120;3.702;2022-12-22T02:38:55;23.60;45.40
36690;DHT22;22676;51.120;3.702;2022-12-22T02:41:55;23.60;45.60
36690;DHT22;22676;51.120;3.702;2022-12-22T02:44:54;23.50;46.10
36690;DHT22;22676;51.120;3.702;2022-12-22T02:47:52;23.50;45.70
36690;DHT22;22676;51.120;3.702;2022-12-22T02:50:44;23.40;45.90
36690;DHT22;22676;51.120;3.702;2022-12-22T02:53:30;23.40;46.00
36690;DHT22;22676;51.120;3.702;2022-12-22T02:56:14;23.40;45.90
36690;DHT22;22676;51.120;3.702;2022-12-22T02:58:58;23.30;46.50
36690;DHT22;22676;51.120;3.702;2022-12-22T03:01:43;23.20;46.20
36690;DHT22;22676;51.120;3.702;2022-12-22T03:04:28;23.10;46.20
36690;DHT22;22676;51.120;3.702;2022-12-22T03:07:12;23.00;46.30
36690;DHT22;22676;51.120;3.702;2022-12-22T03:09:56;23.00;46.40
36690;DHT22;22676;51.120;3.702;2022-12-22T03:12:40;23.00;46.40
36690;DHT22;22676;51.120;3.702;2022-12-22T03:15:25;23.00;46.50
36690;DHT22;22676;51.120;3.702;2022-12-22T03:18:09;23.00;46.50
36690;DHT22;22676;51.120;3.702;2022-12-22T03:20:54;23.00;46.50
36690;DHT22;22676;51.120;3.702;2022-12-22T03:23:38;22.90;46.60
36690;DHT22;22676;51.120;3.702;2022-12-22T03:26:22;22.90;46.60
36690;DHT22;22676;51.120;3.702;2022-12-22T03:28:47;22.90;46.50
36690;DHT22;22676;51.120;3.702;2022-12-22T03:31:13;22.90;46.60
36690;DHT22;22676;51.120;3.702;2022-12-22T03:33:39;22.90;46.50
36690;DHT22;22676;51.120;3.702;2022-12-22T03:36:05;22.90;46.50
36690;DHT22;22676;51.120;3.702;2022-12-22T03:38:30;22.90;46.40
36690;DHT22;22676;51.120;3.702;2022-12-22T03:40:56;22.90;46.30
36690;DHT22;22676;51.120;3.702;2022-12-22T03:43:21;22.90;46.40
36690;DHT22;22676;51.120;3.702;2022-12-22T03:46:06;22.90;46.30
36690;DHT22;22676;51.120;3.702;2022-12-22T03:48:55;22.90;46.30
36690;DHT22;22676;51.120;3.702;2022-12-22T03:51:43;22.90;46.20
36690;DHT22;22676;51.120;3.702;2022-12-22T03:54:09;23.00;46.10
36690;DHT22;22676;51.120;3.702;2022-12-22T03:56:35;23.00;46.00
36690;DHT22;22676;51.120;3.702;2022-12-22T03:59:01;23.00;45.90
36690;DHT22;22676;51.120;3.702;2022-12-22T04:01:27;23.00;45.90
36690;DHT22;22676;51.120;3.702;2022-12-22T04:03:52;23.00;45.90
36690;DHT22;22676;51.120;3.702;2022-12-22T04:06:18;23.00;45.90
36690;DHT22;22676;51.120;3.702;2022-12-22T04:08:43;23.00;45.90
36690;DHT22;22676;51.120;3.702;2022-12-22T04:11:10;23.00;46.00
36690;DHT22;22676;51.120;3.702;2022-12-22T04:13:54;22.90;45.90
36690;DHT22;22676;51.120;3.702;2022-12-22T04:16:20;22.90;46.00
36690;DHT22;22676;51.120;3.702;2022-12-22T04:18:45;22.90;46.00
36690;DHT22;22676;51.120;3.702;2022-12-22T04:21:11;22.90;46.00
36690;DHT22;22676;51.120;3.702;2022-12-22T04:23:36;22.90;46.10
36690;DHT22;22676;51.120;3.702;2022-12-22T04:26:02;22.90;46.10
36690;DHT22;22676;51.120;3.702;2022-12-22T04:28:27;22.90;46.10
36690;DHT22;22676;51.120;3.702;2022-12-22T04:30:53;22.80;46.10
36690;DHT22;22676;51.120;3.702;2022-12-22T04:33:18;22.90;46.00
36690;DHT22;22676;51.120;3.702;2022-12-22T04:35:44;22.90;46.00
36690;DHT22;22676;51.120;3.702;2022-12-22T04:38:09;22.80;45.90
36690;DHT22;22676;51.120;3.702;2022-12-22T04:40:35;22.80;45.90
36690;DHT22;22676;51.120;3.702;2022-12-22T04:43:01;22.80;45.90
36690;DHT22;22676;51.120;3.702;2022-12-22T04:45:26;22.80;45.90
36690;DHT22;22676;51.120;3.702;2022-12-22T04:47:52;22.80;45.90
36690;DHT22;22676;51.120;3.702;2022-12-22T04:50:17;22.80;45.90
36690;DHT22;22676;51.120;3.702;2022-12-22T04:52:43;22.80;45.90
36690;DHT22;22676;51.120;3.702;2022-12-22T04:55:08;22.80;45.80
36690;DHT22;22676;51.120;3.702;2022-12-22T04:57:34;22.80;45.90
36690;DHT22;22676;51.120;3.702;2022-12-22T05:00:00;22.80;45.80
36690;DHT22;22676;51.120;3.702;2022-12-22T05:02:25;22.80;45.80
36690;DHT22;22676;51.120;3.702;2022-12-22T05:04:51;22.70;46.00
36690;DHT22;22676;51.120;3.702;2022-12-22T05:07:17;22.70;46.10
36690;DHT22;22676;51.120;3.702;2022-12-22T05:09:43;22.80;45.90
36690;DHT22;22676;51.120;3.702;2022-12-22T05:12:08;22.70;45.90
36690;DHT22;22676;51.120;3.702;2022-12-22T05:14:52;22.80;45.90
36690;DHT22;22676;51.120;3.702;2022-12-22T05:17:18;22.70;45.90
36690;DHT22;22676;51.120;3.702;2022-12-22T05:19:44;22.70;45.90
36690;DHT22;22676;51.120;3.702;2022-12-22T05:22:09;22.70;46.40
36690;DHT22;22676;51.120;3.702;2022-12-22T05:24:34;22.70;45.90
36690;DHT22;22676;51.120;3.702;2022-12-22T05:27:00;22.70;45.80
36690;DHT22;22676;51.120;3.702;2022-12-22T05:29:26;22.70;45.90
36690;DHT22;22676;51.120;3.702;2022-12-22T05:31:51;22.70;45.90
36690;DHT22;22676;51.120;3.702;2022-12-22T05:34:17;22.70;45.80
36690;DHT22;22676;51.120;3.702;2022-12-22T05:36:42;22.70;45.90
36690;DHT22;22676;51.120;3.702;2022-12-22T05:39:08;22.80;45.70
36690;DHT22;22676;51.120;3.702;2022-12-22T05:41:33;23.00;45.30
36690;DHT22;22676;51.120;3.702;2022-12-22T05:43:59;23.30;44.70
36690;DHT22;22676;51.120;3.702;2022-12-22T05:46:24;23.50;44.30
36690;DHT22;22676;51.120;3.702;2022-12-22T05:48:50;23.60;44.60
36690;DHT22;22676;51.120;3.702;2022-12-22T05:51:15;23.70;43.70
36690;DHT22;22676;51.120;3.702;2022-12-22T05:53:41;23.70;43.60
36690;DHT22;22676;51.120;3.702;2022-12-22T05:56:07;23.80;43.60
36690;DHT22;22676;51.120;3.702;2022-12-22T05:58:33;23.80;43.50
36690;DHT22;22676;51.120;3.702;2022-12-22T06:00:59;23.80;43.50
36690;DHT22;22676;51.120;3.702;2022-12-22T06:03:25;23.90;43.50
36690;DHT22;22676;51.120;3.702;2022-12-22T06:05:51;23.90;43.50
36690;DHT22;22676;51.120;3.702;2022-12-22T06:08:17;23.90;43.70
36690;DHT22;22676;51.120;3.702;2022-12-22T06:10:42;24.00;43.30
36690;DHT22;22676;51.120;3.702;2022-12-22T06:13:08;24.00;43.30
36690;DHT22;22676;51.120;3.702;2022-12-22T06:15:33;24.00;43.50
36690;DHT22;22676;51.120;3.702;2022-12-22T06:17:59;23.90;43.30
36690;DHT22;22676;51.120;3.702;2022-12-22T06:20:24;23.90;43.50
36690;DHT22;22676;51.120;3.702;2022-12-22T06:22:50;23.80;43.50
36690;DHT22;22676;51.120;3.702;2022-12-22T06:25:16;23.90;43.50
36690;DHT22;22676;51.120;3.702;2022-12-22T06:27:41;24.10;43.30
36690;DHT22;22676;51.120;3.702;2022-12-22T06:30:07;24.20;43.00
36690;DHT22;22676;51.120;3.702;2022-12-22T06:32:36;24.40;42.80
36690;DHT22;22676;51.120;3.702;2022-12-22T06:35:02;24.50;42.70
36690;DHT22;22676;51.120;3.702;2022-12-22T06:37:28;24.60;43.20
36690;DHT22;22676;51.120;3.702;2022-12-22T06:39:53;24.60;42.50
36690;DHT22;22676;51.120;3.702;2022-12-22T06:42:19;24.70;42.50
36690;DHT22;22676;51.120;3.702;2022-12-22T06:45:03;24.70;42.40
36690;DHT22;22676;51.120;3.702;2022-12-22T06:47:29;24.80;42.30
36690;DHT22;22676;51.120;3.702;2022-12-22T06:49:54;24.90;42.20
36690;DHT22;22676;51.120;3.702;2022-12-22T06:52:20;25.00;42.10
36690;DHT22;22676;51.120;3.702;2022-12-22T06:54:45;25.00;42.00
36690;DHT22;22676;51.120;3.702;2022-12-22T06:57:11;25.10;41.90
36690;DHT22;22676;51.120;3.702;2022-12-22T06:59:36;25.20;42.00
36690;DHT22;22676;51.120;3.702;2022-12-22T07:02:02;25.20;42.00
36690;DHT22;22676;51.120;3.702;2022-12-22T07:04:27;25.00;41.90
36690;DHT22;22676;51.120;3.702;2022-12-22T07:06:55;25.00;42.70
36690;DHT22;22676;51.120;3.702;2022-12-22T07:09:20;24.80;42.20
36690;DHT22;22676;51.120;3.702;2022-12-22T07:11:46;24.70;42.60
36690;DHT22;22676;51.120;3.702;2022-12-22T07:14:11;24.50;42.70
36690;DHT22;22676;51.120;3.702;2022-12-22T07:16:37;24.40;43.10
36690;DHT22;22676;51.120;3.702;2022-12-22T07:19:02;24.40;43.10
36690;DHT22;22676;51.120;3.702;2022-12-22T07:21:28;24.40;43.40
36690;DHT22;22676;51.120;3.702;2022-12-22T07:23:53;24.40;43.60
36690;DHT22;22676;51.120;3.702;2022-12-22T07:26:19;24.40;43.40
36690;DHT22;22676;51.120;3.702;2022-12-22T07:28:44;24.40;43.40
36690;DHT22;22676;51.120;3.702;2022-12-22T07:31:10;24.40;43.40
36690;DHT22;22676;51.120;3.702;2022-12-22T07:33:36;24.40;43.50
36690;DHT22;22676;51.120;3.702;2022-12-22T07:36:12;24.40;43.50
36690;DHT22;22676;51.120;3.702;2022-12-22T07:38:39;24.40;43.70
36690;DHT22;22676;51.120;3.702;2022-12-22T07:41:06;24.40;43.80
36690;DHT22;22676;51.120;3.702;2022-12-22T07:43:51;24.40;43.80
36690;DHT22;22676;51.120;3.702;2022-12-22T07:46:16;24.20;43.90
36690;DHT22;22676;51.120;3.702;2022-12-22T07:48:42;24.30;43.90
36690;DHT22;22676;51.120;3.702;2022-12-22T07:51:26;24.20;44.00
36690;DHT22;22676;51.120;3.702;2022-12-22T07:53:52;24.10;44.20
36690;DHT22;22676;51.120;3.702;2022-12-22T07:56:17;24.10;44.20
36690;DHT22;22676;51.120;3.702;2022-12-22T07:58:43;24.10;44.20
36690;DHT22;22676;51.120;3.702;2022-12-22T08:01:08;24.10;44.30
36690;DHT22;22676;51.120;3.702;2022-12-22T08:03:34;24.10;44.40
36690;DHT22;22676;51.120;3.702;2022-12-22T08:06:02;24.00;44.30
36690;DHT22;22676;51.120;3.702;2022-12-22T08:08:27;24.00;44.20
36690;DHT22;22676;51.120;3.702;2022-12-22T08:10:53;24.00;44.30
36690;DHT22;22676;51.120;3.702;2022-12-22T08:13:18;24.00;44.30
36690;DHT22;22676;51.120;3.702;2022-12-22T08:15:44;24.00;44.50
36690;DHT22;22676;51.120;3.702;2022-12-22T08:18:10;23.90;44.50
36690;DHT22;22676;51.120;3.702;2022-12-22T08:20:36;23.80;44.70
36690;DHT22;22676;51.120;3.702;2022-12-22T08:23:02;23.70;45.10
36690;DHT22;22676;51.120;3.702;2022-12-22T08:25:28;23.80;45.10
36690;DHT22;22676;51.120;3.702;2022-12-22T08:27:53;23.80;45.00
36690;DHT22;22676;51.120;3.702;2022-12-22T08:30:20;23.70;45.10
36690;DHT22;22676;51.120;3.702;2022-12-22T08:32:46;23.70;45.20
36690;DHT22;22676;51.120;3.702;2022-12-22T08:35:12;23.70;45.20
36690;DHT22;22676;51.120;3.702;2022-12-22T08:37:38;23.70;45.30
36690;DHT22;22676;51.120;3.702;2022-12-22T08:40:05;23.60;45.20
36690;DHT22;22676;51.120;3.702;2022-12-22T08:42:32;23.60;45.20
36690;DHT22;22676;51.120;3.702;2022-12-22T08:44:58;23.60;45.30
36690;DHT22;22676;51.120;3.702;2022-12-22T08:47:23;23.60;45.20
36690;DHT22;22676;51.120;3.702;2022-12-22T08:49:49;23.60;45.10
36690;DHT22;22676;51.120;3.702;2022-12-22T08:52:15;23.60;45.30
36690;DHT22;22676;51.120;3.702;2022-12-22T08:54:40;23.60;45.20
36690;DHT22;22676;51.120;3.702;2022-12-22T08:57:06;23.60;45.40
36690;DHT22;22676;51.120;3.702;2022-12-22T08:59:32;23.60;45.40
36690;DHT22;22676;51.120;3.702;2022-12-22T09:01:57;23.60;45.30
36690;DHT22;22676;51.120;3.702;2022-12-22T09:04:29;23.70;45.20
36690;DHT22;22676;51.120;3.702;2022-12-22T09:06:55;23.60;45.50
36690;DHT22;22676;51.120;3.702;2022-12-22T09:09:20;23.60;45.60
36690;DHT22;22676;51.120;3.702;2022-12-22T09:11:46;23.60;45.60
36690;DHT22;22676;51.120;3.702;2022-12-22T09:14:11;23.60;45.60
36690;DHT22;22676;51.120;3.702;2022-12-22T09:16:38;23.60;45.50
36690;DHT22;22676;51.120;3.702;2022-12-22T09:19:04;23.60;45.50
36690;DHT22;22676;51.120;3.702;2022-12-22T09:21:30;23.70;45.40
36690;DHT22;22676;51.120;3.702;2022-12-22T09:23:56;23.60;45.60
36690;DHT22;22676;51.120;3.702;2022-12-22T09:26:22;23.60;45.50
36690;DHT22;22676;51.120;3.702;2022-12-22T09:28:48;23.60;45.60
36690;DHT22;22676;51.120;3.702;2022-12-22T09:31:14;23.70;45.80
36690;DHT22;22676;51.120;3.702;2022-12-22T09:33:40;23.70;45.60
36690;DHT22;22676;51.120;3.702;2022-12-22T09:36:09;23.70;45.40
36690;DHT22;22676;51.120;3.702;2022-12-22T09:38:35;23.70;45.60
36690;DHT22;22676;51.120;3.702;2022-12-22T09:43:46;23.70;45.50
36690;DHT22;22676;51.120;3.702;2022-12-22T09:48:46;23.60;45.50
36690;DHT22;22676;51.120;3.702;2022-12-22T09:51:12;23.60;45.50
36690;DHT22;22676;51.120;3.702;2022-12-22T09:53:37;23.60;45.60
36690;DHT22;22676;51.120;3.702;2022-12-22T09:56:03;23.60;45.50
36690;DHT22;22676;51.120;3.702;2022-12-22T09:58:30;23.60;45.60
36690;DHT22;22676;51.120;3.702;2022-12-22T10:00:58;23.60;45.50
36690;DHT22;22676;51.120;3.702;2022-12-22T10:06:04;23.50;45.70
36690;DHT22;22676;51.120;3.702;2022-12-22T10:08:33;23.50;45.60
36690;DHT22;22676;51.120;3.702;2022-12-22T10:10:59;23.50;45.60
36690;DHT22;22676;51.120;3.702;2022-12-22T10:13:25;23.40;45.80
36690;DHT22;22676;51.120;3.702;2022-12-22T10:15:50;23.40;45.80
36690;DHT22;22676;51.120;3.702;2022-12-22T10:18:18;23.40;45.90
36690;DHT22;22676;51.120;3.702;2022-12-22T10:20:45;23.40;45.80
36690;DHT22;22676;51.120;3.702;2022-12-22T10:23:23;23.40;45.60
36690;DHT22;22676;51.120;3.702;2022-12-22T10:28:21;23.40;45.70
36690;DHT22;22676;51.120;3.702;2022-12-22T10:30:47;23.40;45.60
36690;DHT22;22676;51.120;3.702;2022-12-22T10:33:14;23.40;45.80
36690;DHT22;22676;51.120;3.702;2022-12-22T10:35:53;23.40;45.90
36690;DHT22;22676;51.120;3.702;2022-12-22T10:38:20;23.40;45.70
36690;DHT22;22676;51.120;3.702;2022-12-22T10:40:47;23.40;45.60
36690;DHT22;22676;51.120;3.702;2022-12-22T10:43:20;23.40;45.50
36690;DHT22;22676;51.120;3.702;2022-12-22T10:45:47;23.30;45.50
36690;DHT22;22676;51.120;3.702;2022-12-22T10:48:13;23.30;45.50
36690;DHT22;22676;51.120;3.702;2022-12-22T10:50:45;23.20;45.80
36690;DHT22;22676;51.120;3.702;2022-12-22T10:53:11;23.00;45.40
36690;DHT22;22676;51.120;3.702;2022-12-22T10:55:37;23.00;45.50
36690;DHT22;22676;51.120;3.702;2022-12-22T11:00:36;23.10;45.40
36690;DHT22;22676;51.120;3.702;2022-12-22T11:03:02;23.10;45.20
36690;DHT22;22676;51.120;3.702;2022-12-22T11:05:28;23.10;45.10
36690;DHT22;22676;51.120;3.702;2022-12-22T11:07:55;23.20;45.10
36690;DHT22;22676;51.120;3.702;2022-12-22T11:12:56;23.20;45.10
36690;DHT22;22676;51.120;3.702;2022-12-22T11:15:28;23.10;45.10
36690;DHT22;22676;51.120;3.702;2022-12-22T11:18:04;23.10;45.10
36690;DHT22;22676;51.120;3.702;2022-12-22T11:23:02;23.10;45.10
36690;DHT22;22676;51.120;3.702;2022-12-22T11:30:41;23.10;45.10
36690;DHT22;22676;51.120;3.702;2022-12-22T11:33:18;23.10;45.60
36690;DHT22;22676;51.120;3.702;2022-12-22T11:35:59;23.10;45.00
36690;DHT22;22676;51.120;3.702;2022-12-22T11:41:15;23.10;45.10
36690;DHT22;22676;51.120;3.702;2022-12-22T11:46:31;23.10;45.10
36690;DHT22;22676;51.120;3.702;2022-12-22T11:54:13;23.10;45.00
36690;DHT22;22676;51.120;3.702;2022-12-22T11:56:44;23.10;45.00
36690;DHT22;22676;51.120;3.702;2022-12-22T12:07:17;22.90;45.30
36690;DHT22;22676;51.120;3.702;2022-12-22T12:12:16;23.20;45.10
36690;DHT22;22676;51.120;3.702;2022-12-22T12:22:35;23.80;44.40
36690;DHT22;22676;51.120;3.702;2022-12-22T12:30:23;24.00;43.90
36690;DHT22;22676;51.120;3.702;2022-12-22T12:32:53;24.30;43.50
36690;DHT22;22676;51.120;3.702;2022-12-22T12:37:54;24.60;43.10
36690;DHT22;22676;51.120;3.702;2022-12-22T12:43:01;24.70;42.90
36690;DHT22;22676;51.120;3.702;2022-12-22T12:50:43;25.10;42.40
36690;DHT22;22676;51.120;3.702;2022-12-22T12:53:09;25.00;42.30
36690;DHT22;22676;51.120;3.702;2022-12-22T12:58:04;25.20;42.40
36690;DHT22;22676;51.120;3.702;2022-12-22T13:02:55;25.20;42.80
36690;DHT22;22676;51.120;3.702;2022-12-22T13:10:28;25.30;43.50
36690;DHT22;22676;51.120;3.702;2022-12-22T13:12:53;25.40;43.80
36690;DHT22;22676;51.120;3.702;2022-12-22T13:15:30;25.40;43.90
36690;DHT22;22676;51.120;3.702;2022-12-22T13:17:56;25.40;44.10
36690;DHT22;22676;51.120;3.702;2022-12-22T13:20:26;25.20;44.10
36690;DHT22;22676;51.120;3.702;2022-12-22T13:22:52;25.00;44.40
36690;DHT22;22676;51.120;3.702;2022-12-22T13:25:18;24.80;44.80
36690;DHT22;22676;51.120;3.702;2022-12-22T13:27:44;24.70;45.00
36690;DHT22;22676;51.120;3.702;2022-12-22T13:30:14;24.60;45.20
36690;DHT22;22676;51.120;3.702;2022-12-22T13:32:40;24.70;45.40
36690;DHT22;22676;51.120;3.702;2022-12-22T13:35:14;24.50;45.60
36690;DHT22;22676;51.120;3.702;2022-12-22T13:37:42;24.50;46.40
36690;DHT22;22676;51.120;3.702;2022-12-22T13:40:09;24.30;47.50
36690;DHT22;22676;51.120;3.702;2022-12-22T13:42:54;24.10;46.80
36690;DHT22;22676;51.120;3.702;2022-12-22T13:45:31;24.10;46.50
36690;DHT22;22676;51.120;3.702;2022-12-22T13:47:58;24.10;46.50
36690;DHT22;22676;51.120;3.702;2022-12-22T13:50:44;24.20;46.70
36690;DHT22;22676;51.120;3.702;2022-12-22T13:53:13;24.30;46.70
36690;DHT22;22676;51.120;3.702;2022-12-22T13:55:39;24.10;47.10
36690;DHT22;22676;51.120;3.702;2022-12-22T13:58:21;24.10;47.20
36690;DHT22;22676;51.120;3.702;2022-12-22T14:01:34;24.00;47.40
36690;DHT22;22676;51.120;3.702;2022-12-22T14:03:35;23.90;47.40
36690;DHT22;22676;51.120;3.702;2022-12-22T14:06:00;23.80;47.70
36690;DHT22;22676;51.120;3.702;2022-12-22T14:08:26;24.00;47.80
36690;DHT22;22676;51.120;3.702;2022-12-22T14:10:51;24.00;48.10
36690;DHT22;22676;51.120;3.702;2022-12-22T14:13:18;24.00;48.20
36690;DHT22;22676;51.120;3.702;2022-12-22T14:15:45;24.20;47.90
36690;DHT22;22676;51.120;3.702;2022-12-22T14:18:14;24.10;47.80
36690;DHT22;22676;51.120;3.702;2022-12-22T14:20:41;23.90;48.10
36690;DHT22;22676;51.120;3.702;2022-12-22T14:23:11;23.80;48.30
36690;DHT22;22676;51.120;3.702;2022-12-22T14:25:39;23.80;48.50
36690;DHT22;22676;51.120;3.702;2022-12-22T14:28:06;23.70;48.60
36690;DHT22;22676;51.120;3.702;2022-12-22T14:30:40;23.70;48.40
36690;DHT22;22676;51.120;3.702;2022-12-22T14:33:13;23.60;48.30
36690;DHT22;22676;51.120;3.702;2022-12-22T14:35:39;23.60;48.40
36690;DHT22;22676;51.120;3.702;2022-12-22T14:40:34;23.50;49.40
36690;DHT22;22676;51.120;3.702;2022-12-22T14:43:00;23.40;48.60
36690;DHT22;22676;51.120;3.702;2022-12-22T14:45:26;23.40;48.90
36690;DHT22;22676;51.120;3.702;2022-12-22T14:47:52;23.40;48.70
36690;DHT22;22676;51.120;3.702;2022-12-22T14:50:19;23.40;48.70
36690;DHT22;22676;51.120;3.702;2022-12-22T14:52:49;23.50;48.60
36690;DHT22;22676;51.120;3.702;2022-12-22T14:55:22;23.60;48.60
36690;DHT22;22676;51.120;3.702;2022-12-22T14:57:51;23.60;48.40
36690;DHT22;22676;51.120;3.702;2022-12-22T15:02:51;23.70;48.50
36690;DHT22;22676;51.120;3.702;2022-12-22T15:05:24;23.70;48.40
36690;DHT22;22676;51.120;3.702;2022-12-22T15:07:51;23.70;48.70
36690;DHT22;22676;51.120;3.702;2022-12-22T15:10:17;23.70;48.60
36690;DHT22;22676;51.120;3.702;2022-12-22T15:12:43;23.70;48.60
36690;DHT22;22676;51.120;3.702;2022-12-22T15:15:16;23.70;48.70
36690;DHT22;22676;51.120;3.702;2022-12-22T15:17:43;23.70;48.70
36690;DHT22;22676;51.120;3.702;2022-12-22T15:20:12;23.70;48.90
36690;DHT22;22676;51.120;3.702;2022-12-22T15:22:38;23.70;49.00
36690;DHT22;22676;51.120;3.702;2022-12-22T15:25:10;23.70;48.70
36690;DHT22;22676;51.120;3.702;2022-12-22T15:27:36;23.60;48.70
36690;DHT22;22676;51.120;3.702;2022-12-22T15:30:02;23.60;48.80
36690;DHT22;22676;51.120;3.702;2022-12-22T15:32:27;23.50;49.10
36690;DHT22;22676;51.120;3.702;2022-12-22T15:34:53;23.50;49.40
36690;DHT22;22676;51.120;3.702;2022-12-22T15:37:19;23.50;49.30
36690;DHT22;22676;51.120;3.702;2022-12-22T15:39:44;23.50;49.30
36690;DHT22;22676;51.120;3.702;2022-12-22T15:42:10;23.50;49.30
36690;DHT22;22676;51.120;3.702;2022-12-22T15:44:36;23.50;49.20
36690;DHT22;22676;51.120;3.702;2022-12-22T15:47:01;23.50;49.40
36690;DHT22;22676;51.120;3.702;2022-12-22T15:49:27;23.60;49.30
36690;DHT22;22676;51.120;3.702;2022-12-22T15:51:54;23.60;49.30
36690;DHT22;22676;51.120;3.702;2022-12-22T15:54:20;23.60;49.30
36690;DHT22;22676;51.120;3.702;2022-12-22T15:56:46;23.60;49.30
36690;DHT22;22676;51.120;3.702;2022-12-22T15:59:14;23.60;49.40
36690;DHT22;22676;51.120;3.702;2022-12-22T16:01:40;23.50;49.20
36690;DHT22;22676;51.120;3.702;2022-12-22T16:04:06;23.50;49.30
36690;DHT22;22676;51.120;3.702;2022-12-22T16:06:31;23.60;49.50
36690;DHT22;22676;51.120;3.702;2022-12-22T16:08:57;23.50;49.40
36690;DHT22;22676;51.120;3.702;2022-12-22T16:11:22;23.60;49.60
36690;DHT22;22676;51.120;3.702;2022-12-22T16:13:48;23.50;49.40
36690;DHT22;22676;51.120;3.702;2022-12-22T16:16:14;23.50;49.60
36690;DHT22;22676;51.120;3.702;2022-12-22T16:18:40;23.50;49.50
36690;DHT22;22676;51.120;3.702;2022-12-22T16:21:07;23.50;49.50
36690;DHT22;22676;51.120;3.702;2022-12-22T16:23:36;23.50;49.50
36690;DHT22;22676;51.120;3.702;2022-12-22T16:26:02;23.50;49.70
36690;DHT22;22676;51.120;3.702;2022-12-22T16:28:30;23.40;49.60
36690;DHT22;22676;51.120;3.702;2022-12-22T16:30:57;23.50;49.60
36690;DHT22;22676;51.120;3.702;2022-12-22T16:33:23;23.50;49.60
36690;DHT22;22676;51.120;3.702;2022-12-22T16:35:49;23.40;49.40
36690;DHT22;22676;51.120;3.702;2022-12-22T16:38:14;23.40;49.50
36690;DHT22;22676;51.120;3.702;2022-12-22T16:40:43;23.50;49.60
36690;DHT22;22676;51.120;3.702;2022-12-22T16:45:42;23.50;49.60
36690;DHT22;22676;51.120;3.702;2022-12-22T16:48:09;23.50;49.50
36690;DHT22;22676;51.120;3.702;2022-12-22T16:50:36;23.50;49.50
36690;DHT22;22676;51.120;3.702;2022-12-22T16:53:03;23.40;49.50
36690;DHT22;22676;51.120;3.702;2022-12-22T16:55:29;23.50;49.60
36690;DHT22;22676;51.120;3.702;2022-12-22T16:57:55;23.40;49.60
36690;DHT22;22676;51.120;3.702;2022-12-22T17:00:21;23.50;50.10
36690;DHT22;22676;51.120;3.702;2022-12-22T17:02:49;23.40;49.40
36690;DHT22;22676;51.120;3.702;2022-12-22T17:05:21;23.40;49.60
36690;DHT22;22676;51.120;3.702;2022-12-22T17:07:47;23.50;49.60
36690;DHT22;22676;51.120;3.702;2022-12-22T17:10:13;23.40;49.50
36690;DHT22;22676;51.120;3.702;2022-12-22T17:12:39;23.40;49.60
36690;DHT22;22676;51.120;3.702;2022-12-22T17:15:04;23.40;49.80
36690;DHT22;22676;51.120;3.702;2022-12-22T17:17:30;23.20;49.40
36690;DHT22;22676;51.120;3.702;2022-12-22T17:19:55;23.20;49.40
36690;DHT22;22676;51.120;3.702;2022-12-22T17:22:22;23.20;49.60